Big Bear Station Historical Data
Daily Summary for July 7, 2019 Units:  English    Metric   Both
Next Day »
Daily Weekly Monthly Yearly Custom
  High: Low: Average:
Temperature: 76.5 °F 49.8 °F 61.1 °F
Dew Point: 46.4 °F 21.1 °F 33.9 °F
Humidity: 69% 20% 38%
Wind Speed: 4.2mph 0mph 0.3mph
Wind Gust: -999mph - -
Wind- - NW
Pressure: 23.58 in 23.52 in -
Precipitation: 0 in    
Historical Graphs
 
 
Tabular Data for July 7, 2019
Time Temperature Dew Point Pressure Wind Wind Speed Wind Gust Humidity Rainfall Rate (Hourly)
00:02 54.1 °F 31.5 °F 23.58 in Calm   -999 mph 42% 0.00 in
00:17 53.6 °F 31.1 °F 23.58 in Calm   -999 mph 42% 0.00 in
00:32 53.1 °F 31.8 °F 23.58 in Calm   -999 mph 44% 0.00 in
00:48 52.7 °F 31.4 °F 23.57 in Calm   -999 mph 44% 0.00 in
01:03 52.3 °F 30.5 °F 23.57 in Calm   -999 mph 43% 0.00 in
01:18 52 °F 30.8 °F 23.57 in Calm   -999 mph 44% 0.00 in
01:33 52.3 °F 29.9 °F 23.57 in Calm   -999 mph 42% 0.00 in
01:48 52.3 °F 29.9 °F 23.57 in Calm   -999 mph 42% 0.00 in
02:04 53.1 °F 31.8 °F 23.57 in Calm   -999 mph 44% 0.00 in
02:19 52.9 °F 30.4 °F 23.56 in Calm   -999 mph 42% 0.00 in
02:34 52.2 °F 33.6 °F 23.56 in Calm   -999 mph 49% 0.00 in
02:49 52 °F 33.4 °F 23.56 in Calm   -999 mph 49% 0.00 in
03:05 51.8 °F 26.3 °F 23.55 in Calm   -999 mph 37% 0.00 in
03:20 53.4 °F 23.5 °F 23.55 in Calm   -999 mph 31% 0.00 in
03:36 52.7 °F 24.4 °F 23.54 in Calm   -999 mph 33% 0.00 in
03:51 51.4 °F 26.6 °F 23.54 in Calm   -999 mph 38% 0.00 in
04:06 51.1 °F 30.5 °F 23.54 in Calm   -999 mph 45% 0.00 in
04:21 50.5 °F 30.5 °F 23.54 in Calm   -999 mph 46% 0.00 in
04:36 50.5 °F 36.3 °F 23.54 in Calm   -999 mph 58% 0.00 in
04:52 50.5 °F 31 °F 23.54 in Calm   -999 mph 47% 0.00 in
05:07 50 °F 33.1 °F 23.54 in Calm   -999 mph 52% 0.00 in
05:22 50 °F 35.4 °F 23.54 in Calm   -999 mph 57% 0.00 in
05:37 50 °F 28.4 °F 23.54 in Calm   -999 mph 43% 0.00 in
05:52 49.8 °F 30.9 °F 23.54 in Calm   -999 mph 48% 0.00 in
06:08 50.9 °F 30.3 °F 23.54 in Calm   -999 mph 45% 0.00 in
06:23 51.3 °F 30.1 °F 23.54 in Calm   -999 mph 44% 0.00 in
06:38 51.3 °F 31.2 °F 23.54 in Calm   -999 mph 46% 0.00 in
06:53 53.6 °F 26.6 °F 23.54 in Calm   -999 mph 35% 0.00 in
07:08 55.4 °F 21.1 °F 23.54 in Calm   -999 mph 26% 0.00 in
07:24 56.5 °F 22.9 °F 23.55 in Calm   -999 mph 27% 0.00 in
07:39 57.4 °F 22.8 °F 23.55 in Calm   -999 mph 26% 0.00 in
07:54 58.1 °F 21.5 °F 23.55 in Calm   -999 mph 24% 0.00 in
08:09 58.8 °F 23 °F 23.55 in Calm   -999 mph 25% 0.00 in
08:24 59.5 °F 24.6 °F 23.55 in Calm   -999 mph 26% 0.00 in
08:40 60.6 °F 21.5 °F 23.55 in Calm   -999 mph 22% 0.00 in
08:55 61.5 °F 22.3 °F 23.55 in Calm   -999 mph 22% 0.00 in
09:10 62.4 °F 21.9 °F 23.55 in Calm   -999 mph 21% 0.00 in
09:25 63.5 °F 25 °F 23.55 in Calm   -999 mph 23% 0.00 in
09:40 63.5 °F 28.9 °F 23.55 in Calm   -999 mph 27% 0.00 in
09:56 63.9 °F 26.4 °F 23.55 in Calm   -999 mph 24% 0.00 in
10:11 65.5 °F 27.7 °F 23.55 in Calm   -999 mph 24% 0.00 in
10:26 66.2 °F 28.3 °F 23.55 in Calm   -999 mph 24% 0.00 in
10:41 66.9 °F 31.8 °F 23.55 in Calm   -999 mph 27% 0.00 in
10:57 67.6 °F 31.5 °F 23.55 in Calm   -999 mph 26% 0.00 in
11:12 68.4 °F 30.2 °F 23.55 in Calm   -999 mph 24% 0.00 in
11:27 69.3 °F 32 °F 23.55 in Calm   -999 mph 25% 0.00 in
11:42 70 °F 29.4 °F 23.56 in Calm   -999 mph 22% 0.00 in
11:57 70.7 °F 31.1 °F 23.56 in Calm   -999 mph 23% 0.00 in
12:13 72.5 °F 29.1 °F 23.55 in NW 2.2 mph -999 mph 20% 0.00 in
12:28 73.4 °F 33.3 °F 23.55 in North 3.7 mph -999 mph 23% 0.00 in
12:43 73.8 °F 33.7 °F 23.55 in NW 3.7 mph -999 mph 23% 0.00 in
12:59 74.1 °F 32.8 °F 23.55 in NW 3.2 mph -999 mph 22% 0.00 in
13:14 74.1 °F 33.9 °F 23.55 in NW 1.1 mph -999 mph 23% 0.00 in
13:29 73.9 °F 34.8 °F 23.55 in Calm   -999 mph 24% 0.00 in
13:44 74.3 °F 35.2 °F 23.55 in WNW 2.2 mph -999 mph 24% 0.00 in
14:00 74.7 °F 34.4 °F 23.54 in NW 2.2 mph -999 mph 23% 0.00 in
14:15 74.5 °F 39.3 °F 23.54 in Calm   -999 mph 28% 0.00 in
14:30 74.7 °F 38.5 °F 23.54 in Calm   -999 mph 27% 0.00 in
14:45 74.8 °F 38.6 °F 23.54 in WNW 4.2 mph -999 mph 27% 0.00 in
15:00 76.5 °F 41.9 °F 23.54 in NNW 2.7 mph -999 mph 29% 0.00 in
15:16 74.8 °F 38.6 °F 23.53 in Calm   -999 mph 27% 0.00 in
15:31 74.5 °F 41 °F 23.53 in Calm   -999 mph 30% 0.00 in
15:46 73.6 °F 43.5 °F 23.53 in Calm   -999 mph 34% 0.00 in
16:01 73 °F 43.7 °F 23.53 in Calm   -999 mph 35% 0.00 in
16:17 72 °F 41.3 °F 23.53 in Calm   -999 mph 33% 0.00 in
16:32 72.7 °F 41.1 °F 23.53 in Calm   -999 mph 32% 0.00 in
16:47 73.2 °F 40.8 °F 23.53 in NNW 3.7 mph -999 mph 31% 0.00 in
17:02 73.2 °F 42.4 °F 23.53 in WNW 2.7 mph -999 mph 33% 0.00 in
17:17 73.8 °F 42.1 °F 23.53 in Calm   -999 mph 32% 0.00 in
17:33 75.4 °F 44.3 °F 23.52 in Calm   -999 mph 33% 0.00 in
17:48 73 °F 43 °F 23.52 in Calm   -999 mph 34% 0.00 in
18:03 72.1 °F 42.2 °F 23.52 in Calm   -999 mph 34% 0.00 in
18:18 71.8 °F 44.8 °F 23.52 in Calm   -999 mph 38% 0.00 in
18:33 70.5 °F 45 °F 23.52 in Calm   -999 mph 40% 0.00 in
18:49 68.7 °F 44.7 °F 23.52 in Calm   -999 mph 42% 0.00 in
19:04 64.6 °F 45 °F 23.52 in Calm   -999 mph 49% 0.00 in
19:19 62.2 °F 45.8 °F 23.52 in Calm   -999 mph 55% 0.00 in
19:34 60.3 °F 45.9 °F 23.52 in Calm   -999 mph 59% 0.00 in
19:49 58.5 °F 46.4 °F 23.52 in Calm   -999 mph 64% 0.00 in
20:05 57.2 °F 45.5 °F 23.52 in Calm   -999 mph 65% 0.00 in
20:20 56.3 °F 46.3 °F 23.52 in Calm   -999 mph 69% 0.00 in
20:35 55.4 °F 43.8 °F 23.52 in Calm   -999 mph 65% 0.00 in
20:50 54.7 °F 44.3 °F 23.53 in Calm   -999 mph 68% 0.00 in
21:06 54 °F 41.7 °F 23.53 in Calm   -999 mph 63% 0.00 in
21:21 53.2 °F 40.5 °F 23.53 in Calm   -999 mph 62% 0.00 in
21:36 53.1 °F 37.4 °F 23.53 in Calm   -999 mph 55% 0.00 in
21:51 53.6 °F 34.9 °F 23.53 in Calm   -999 mph 49% 0.00 in
22:06 53.4 °F 36.2 °F 23.54 in Calm   -999 mph 52% 0.00 in
22:22 54.1 °F 35.4 °F 23.54 in Calm   -999 mph 49% 0.00 in
22:37 53.2 °F 32.9 °F 23.54 in Calm   -999 mph 46% 0.00 in
22:52 53.1 °F 33.9 °F 23.54 in Calm   -999 mph 48% 0.00 in
23:07 52.3 °F 33.2 °F 23.54 in Calm   -999 mph 48% 0.00 in
23:22 52 °F 33.4 °F 23.54 in Calm   -999 mph 49% 0.00 in
23:38 51.6 °F 31.5 °F 23.54 in Calm   -999 mph 46% 0.00 in
23:53 51.4 °F 31.3 °F 23.53 in Calm   -999 mph 46% 0.00 in
Big Bear CA Weather